Missouri River (Missouri), Waverly (06895500)

StateMissouriLatestUnknown (71900 cfs)
RiverMissouri RiverRatingObservedEstimated
Updated2020-02-25 15:00 (50 minutes ago)Flood - The river is flooding. Obstacles can be treacherous or deadly. The river should be avoided at this stage for casual trips and definitely for the inexperienced. Trips should be attempted only with protective gear and equipment.Flood(none)(none)
Discharge71900 cfs (median: 40500 cfs)High - The river is high and potentially dangerous, especially for the young and / or inexperienced. Normal stream obstacles are sometimes difficult to navigate. Extended distances can be attempted, but canoe travel may not be advisable.High(none)(none)
Height14.58 feetGood - Conditions are ideal for a canoe or kayak. Boats typically will drag on fewer than one-quarter of riffles, if at all, and portages are unnecessary or rare. Normal float lengths can be attempted without a problem.Good(none)(none)
TrendSteady (rising over 24 hours)Low - River is low but can still be floated. Some riffles are okay but most come with significant dragging and might need a portage. Float lengths should be reduced to accommodate low flow, dragging, and portages.Low(none)(none)
USGSExternal icon USGS Site (External icon Google Maps)Poor - River is too low to float comfortably. Most or all riffles will drag or must be portaged and some obstacles (such as slick shelf rock) cause undue problems. Avoid the river at this stage for casual paddling trips.Poor(none)(none)

Trending Data

Plot Image

Trips for Missouri River (Missouri), Waverly (06895500)

DateStartEndDistanceConditionDischargeHeightFishingDetails

A total of 0 rows are displayed.

Condition Descriptions

Fishing Conditions

Fish Species

Notes

Classic Trip List

The classic River Trips application is still available for use. It is updated with the new system using a data retrofit. It is no longer maintained. The original River Trips application is no longer updated (as of 1 Dec 2016) but can be checked for errors or for the condition of the data before it was converted to the new system.

Gauge Data Table

ObservationHeightDischargeMaximum
Discharge
Minimum
Discharge
Mean
Discharge
P05P10P20P25P50
(Median)
P75P80P90P95
2020-02-25 15:00 14.58 71900 128000 (1982) 15000 (1967) 47900 21600 23700 29700 31500 40500 58000 69300 83100 106000
2020-02-25 14:00 14.59 71900 128000 (1982) 15000 (1967) 47900 21600 23700 29700 31500 40500 58000 69300 83100 106000
2020-02-25 13:00 14.60 72000 128000 (1982) 15000 (1967) 47900 21600 23700 29700 31500 40500 58000 69300 83100 106000
2020-02-25 12:00 14.56 71700 128000 (1982) 15000 (1967) 47900 21600 23700 29700 31500 40500 58000 69300 83100 106000
2020-02-25 11:00 14.57 71800 128000 (1982) 15000 (1967) 47900 21600 23700 29700 31500 40500 58000 69300 83100 106000
2020-02-25 10:00 14.47 71100 128000 (1982) 15000 (1967) 47900 21600 23700 29700 31500 40500 58000 69300 83100 106000
2020-02-25 09:00 14.54 71600 128000 (1982) 15000 (1967) 47900 21600 23700 29700 31500 40500 58000 69300 83100 106000
2020-02-25 08:00 14.55 71700 128000 (1982) 15000 (1967) 47900 21600 23700 29700 31500 40500 58000 69300 83100 106000
2020-02-25 07:00 14.48 71200 128000 (1982) 15000 (1967) 47900 21600 23700 29700 31500 40500 58000 69300 83100 106000
2020-02-25 06:00 14.51 71400 128000 (1982) 15000 (1967) 47900 21600 23700 29700 31500 40500 58000 69300 83100 106000
2020-02-25 05:00 14.47 71100 128000 (1982) 15000 (1967) 47900 21600 23700 29700 31500 40500 58000 69300 83100 106000
2020-02-25 04:00 14.49 71200 128000 (1982) 15000 (1967) 47900 21600 23700 29700 31500 40500 58000 69300 83100 106000
2020-02-25 03:00 14.42 70800 128000 (1982) 15000 (1967) 47900 21600 23700 29700 31500 40500 58000 69300 83100 106000
2020-02-25 02:00 14.44 70900 128000 (1982) 15000 (1967) 47900 21600 23700 29700 31500 40500 58000 69300 83100 106000
2020-02-25 01:00 14.45 71000 128000 (1982) 15000 (1967) 47900 21600 23700 29700 31500 40500 58000 69300 83100 106000
2020-02-25 00:00 14.44 70900 128000 (1982) 15000 (1967) 47900 21600 23700 29700 31500 40500 58000 69300 83100 106000
2020-02-24 23:00 14.41 70700 122000 (1982) 14600 (1967) 47600 18600 23700 28800 30700 40300 54900 62900 87400 119000
2020-02-24 22:00 14.38 70500 122000 (1982) 14600 (1967) 47600 18600 23700 28800 30700 40300 54900 62900 87400 119000
2020-02-24 21:00 14.41 70700 122000 (1982) 14600 (1967) 47600 18600 23700 28800 30700 40300 54900 62900 87400 119000
2020-02-24 20:00 14.39 70600 122000 (1982) 14600 (1967) 47600 18600 23700 28800 30700 40300 54900 62900 87400 119000
2020-02-24 19:00 14.39 70600 122000 (1982) 14600 (1967) 47600 18600 23700 28800 30700 40300 54900 62900 87400 119000
2020-02-24 18:00 14.39 70600 122000 (1982) 14600 (1967) 47600 18600 23700 28800 30700 40300 54900 62900 87400 119000
2020-02-24 17:00 14.38 70500 122000 (1982) 14600 (1967) 47600 18600 23700 28800 30700 40300 54900 62900 87400 119000
2020-02-24 16:00 14.35 70300 122000 (1982) 14600 (1967) 47600 18600 23700 28800 30700 40300 54900 62900 87400 119000
2020-02-24 15:00 14.23 69500 122000 (1982) 14600 (1967) 47600 18600 23700 28800 30700 40300 54900 62900 87400 119000
2020-02-24 14:00 14.33 70200 122000 (1982) 14600 (1967) 47600 18600 23700 28800 30700 40300 54900 62900 87400 119000
2020-02-24 13:00 14.30 70000 122000 (1982) 14600 (1967) 47600 18600 23700 28800 30700 40300 54900 62900 87400 119000
2020-02-24 12:00 14.31 70000 122000 (1982) 14600 (1967) 47600 18600 23700 28800 30700 40300 54900 62900 87400 119000
2020-02-24 11:00 14.25 69600 122000 (1982) 14600 (1967) 47600 18600 23700 28800 30700 40300 54900 62900 87400 119000
2020-02-24 10:00 14.25 69600 122000 (1982) 14600 (1967) 47600 18600 23700 28800 30700 40300 54900 62900 87400 119000
2020-02-24 09:00 14.23 69500 122000 (1982) 14600 (1967) 47600 18600 23700 28800 30700 40300 54900 62900 87400 119000
2020-02-24 08:00 14.25 69600 122000 (1982) 14600 (1967) 47600 18600 23700 28800 30700 40300 54900 62900 87400 119000
2020-02-24 07:00 14.25 69600 122000 (1982) 14600 (1967) 47600 18600 23700 28800 30700 40300 54900 62900 87400 119000
2020-02-24 06:00 14.36 70400 122000 (1982) 14600 (1967) 47600 18600 23700 28800 30700 40300 54900 62900 87400 119000
2020-02-24 05:00 14.31 70000 122000 (1982) 14600 (1967) 47600 18600 23700 28800 30700 40300 54900 62900 87400 119000
2020-02-24 04:00 14.31 70000 122000 (1982) 14600 (1967) 47600 18600 23700 28800 30700 40300 54900 62900 87400 119000
2020-02-24 03:00 14.34 70200 122000 (1982) 14600 (1967) 47600 18600 23700 28800 30700 40300 54900 62900 87400 119000
2020-02-24 02:00 14.35 70300 122000 (1982) 14600 (1967) 47600 18600 23700 28800 30700 40300 54900 62900 87400 119000
2020-02-24 01:00 14.33 70200 122000 (1982) 14600 (1967) 47600 18600 23700 28800 30700 40300 54900 62900 87400 119000
2020-02-24 00:00 14.35 70300 122000 (1982) 14600 (1967) 47600 18600 23700 28800 30700 40300 54900 62900 87400 119000
2020-02-23 23:00 14.37 70400 134000 (1997) 13400 (1958) 46900 18500 23500 26900 28700 39600 51400 58000 90400 116000
2020-02-23 22:00 14.38 70500 134000 (1997) 13400 (1958) 46900 18500 23500 26900 28700 39600 51400 58000 90400 116000
2020-02-23 21:00 14.36 70400 134000 (1997) 13400 (1958) 46900 18500 23500 26900 28700 39600 51400 58000 90400 116000
2020-02-23 20:00 14.40 70600 134000 (1997) 13400 (1958) 46900 18500 23500 26900 28700 39600 51400 58000 90400 116000
2020-02-23 19:00 14.46 71000 134000 (1997) 13400 (1958) 46900 18500 23500 26900 28700 39600 51400 58000 90400 116000
2020-02-23 18:00 14.45 71000 134000 (1997) 13400 (1958) 46900 18500 23500 26900 28700 39600 51400 58000 90400 116000
2020-02-23 17:00 14.48 71200 134000 (1997) 13400 (1958) 46900 18500 23500 26900 28700 39600 51400 58000 90400 116000
2020-02-23 16:00 14.52 71500 134000 (1997) 13400 (1958) 46900 18500 23500 26900 28700 39600 51400 58000 90400 116000
2020-02-23 15:00 14.57 71800 134000 (1997) 13400 (1958) 46900 18500 23500 26900 28700 39600 51400 58000 90400 116000
2020-02-23 14:00 14.62 72100 134000 (1997) 13400 (1958) 46900 18500 23500 26900 28700 39600 51400 58000 90400 116000
2020-02-23 13:00 14.62 72100 134000 (1997) 13400 (1958) 46900 18500 23500 26900 28700 39600 51400 58000 90400 116000
2020-02-23 12:00 14.64 72300 134000 (1997) 13400 (1958) 46900 18500 23500 26900 28700 39600 51400 58000 90400 116000
2020-02-23 11:00 14.62 72100 134000 (1997) 13400 (1958) 46900 18500 23500 26900 28700 39600 51400 58000 90400 116000
2020-02-23 10:00 14.65 72300 134000 (1997) 13400 (1958) 46900 18500 23500 26900 28700 39600 51400 58000 90400 116000
2020-02-23 09:00 14.67 72500 134000 (1997) 13400 (1958) 46900 18500 23500 26900 28700 39600 51400 58000 90400 116000
2020-02-23 08:00 14.70 72700 134000 (1997) 13400 (1958) 46900 18500 23500 26900 28700 39600 51400 58000 90400 116000
2020-02-23 07:00 14.80 73400 134000 (1997) 13400 (1958) 46900 18500 23500 26900 28700 39600 51400 58000 90400 116000
2020-02-23 06:00 14.81 73500 134000 (1997) 13400 (1958) 46900 18500 23500 26900 28700 39600 51400 58000 90400 116000
2020-02-23 05:00 14.92 74200 134000 (1997) 13400 (1958) 46900 18500 23500 26900 28700 39600 51400 58000 90400 116000
2020-02-23 04:00 14.92 74200 134000 (1997) 13400 (1958) 46900 18500 23500 26900 28700 39600 51400 58000 90400 116000
2020-02-23 03:00 14.96 74500 134000 (1997) 13400 (1958) 46900 18500 23500 26900 28700 39600 51400 58000 90400 116000
2020-02-23 02:00 15.03 75000 134000 (1997) 13400 (1958) 46900 18500 23500 26900 28700 39600 51400 58000 90400 116000
2020-02-23 01:00 15.06 75200 134000 (1997) 13400 (1958) 46900 18500 23500 26900 28700 39600 51400 58000 90400 116000
2020-02-23 00:00 15.10 75500 134000 (1997) 13400 (1958) 46900 18500 23500 26900 28700 39600 51400 58000 90400 116000
2020-02-22 23:00 14.99 74700 140000 (1997) 11500 (1958) 45000 17800 23400 25900 26800 37700 51600 56200 86300 103000
2020-02-22 22:00 15.16 75900 140000 (1997) 11500 (1958) 45000 17800 23400 25900 26800 37700 51600 56200 86300 103000
2020-02-22 21:00 15.17 76000 140000 (1997) 11500 (1958) 45000 17800 23400 25900 26800 37700 51600 56200 86300 103000
2020-02-22 20:00 15.19 76100 140000 (1997) 11500 (1958) 45000 17800 23400 25900 26800 37700 51600 56200 86300 103000
2020-02-22 19:00 15.19 76100 140000 (1997) 11500 (1958) 45000 17800 23400 25900 26800 37700 51600 56200 86300 103000
2020-02-22 18:00 15.18 76100 140000 (1997) 11500 (1958) 45000 17800 23400 25900 26800 37700 51600 56200 86300 103000
2020-02-22 17:00 15.16 75900 140000 (1997) 11500 (1958) 45000 17800 23400 25900 26800 37700 51600 56200 86300 103000
2020-02-22 16:00 15.21 76300 140000 (1997) 11500 (1958) 45000 17800 23400 25900 26800 37700 51600 56200 86300 103000
2020-02-22 15:00 15.24 76500 140000 (1997) 11500 (1958) 45000 17800 23400 25900 26800 37700 51600 56200 86300 103000
2020-02-22 14:00 15.25 76600 140000 (1997) 11500 (1958) 45000 17800 23400 25900 26800 37700 51600 56200 86300 103000
2020-02-22 13:00 15.22 76400 140000 (1997) 11500 (1958) 45000 17800 23400 25900 26800 37700 51600 56200 86300 103000
2020-02-22 12:00 15.30 76900 140000 (1997) 11500 (1958) 45000 17800 23400 25900 26800 37700 51600 56200 86300 103000
2020-02-22 11:00 15.33 77100 140000 (1997) 11500 (1958) 45000 17800 23400 25900 26800 37700 51600 56200 86300 103000
2020-02-22 10:00 15.35 77300 140000 (1997) 11500 (1958) 45000 17800 23400 25900 26800 37700 51600 56200 86300 103000
2020-02-22 09:00 15.35 77300 140000 (1997) 11500 (1958) 45000 17800 23400 25900 26800 37700 51600 56200 86300 103000
2020-02-22 08:00 15.35 77300 140000 (1997) 11500 (1958) 45000 17800 23400 25900 26800 37700 51600 56200 86300 103000
2020-02-22 07:00 15.31 77000 140000 (1997) 11500 (1958) 45000 17800 23400 25900 26800 37700 51600 56200 86300 103000
2020-02-22 06:00 15.41 77700 140000 (1997) 11500 (1958) 45000 17800 23400 25900 26800 37700 51600 56200 86300 103000
2020-02-22 05:00 15.28 76800 140000 (1997) 11500 (1958) 45000 17800 23400 25900 26800 37700 51600 56200 86300 103000
2020-02-22 04:00 15.39 77600 140000 (1997) 11500 (1958) 45000 17800 23400 25900 26800 37700 51600 56200 86300 103000
2020-02-22 03:00 15.40 77700 140000 (1997) 11500 (1958) 45000 17800 23400 25900 26800 37700 51600 56200 86300 103000
2020-02-22 02:00 15.41 77700 140000 (1997) 11500 (1958) 45000 17800 23400 25900 26800 37700 51600 56200 86300 103000
2020-02-22 01:00 15.44 77900 140000 (1997) 11500 (1958) 45000 17800 23400 25900 26800 37700 51600 56200 86300 103000
2020-02-22 00:00 15.43 77900 140000 (1997) 11500 (1958) 45000 17800 23400 25900 26800 37700 51600 56200 86300 103000
2020-02-21 23:00 15.41 77700 121000 (1997) 12000 (1958) 43200 17700 23500 26200 27500 38300 51900 56200 77500 97400
2020-02-21 22:00 15.42 77800 121000 (1997) 12000 (1958) 43200 17700 23500 26200 27500 38300 51900 56200 77500 97400
2020-02-21 21:00 15.42 77800 121000 (1997) 12000 (1958) 43200 17700 23500 26200 27500 38300 51900 56200 77500 97400
2020-02-21 20:00 15.44 77900 121000 (1997) 12000 (1958) 43200 17700 23500 26200 27500 38300 51900 56200 77500 97400
2020-02-21 19:00 15.45 78000 121000 (1997) 12000 (1958) 43200 17700 23500 26200 27500 38300 51900 56200 77500 97400
2020-02-21 18:00 15.45 78000 121000 (1997) 12000 (1958) 43200 17700 23500 26200 27500 38300 51900 56200 77500 97400
2020-02-21 17:00 15.44 77900 121000 (1997) 12000 (1958) 43200 17700 23500 26200 27500 38300 51900 56200 77500 97400
2020-02-21 16:00 15.44 77900 121000 (1997) 12000 (1958) 43200 17700 23500 26200 27500 38300 51900 56200 77500 97400
2020-02-21 15:00 15.45 78000 121000 (1997) 12000 (1958) 43200 17700 23500 26200 27500 38300 51900 56200 77500 97400
2020-02-21 14:00 15.46 78100 121000 (1997) 12000 (1958) 43200 17700 23500 26200 27500 38300 51900 56200 77500 97400
2020-02-21 13:00 15.43 77900 121000 (1997) 12000 (1958) 43200 17700 23500 26200 27500 38300 51900 56200 77500 97400
2020-02-21 12:00 15.40 77700 121000 (1997) 12000 (1958) 43200 17700 23500 26200 27500 38300 51900 56200 77500 97400
2020-02-21 10:00 15.40 77700 121000 (1997) 12000 (1958) 43200 17700 23500 26200 27500 38300 51900 56200 77500 97400
2020-02-21 09:00 15.42 77800 121000 (1997) 12000 (1958) 43200 17700 23500 26200 27500 38300 51900 56200 77500 97400
2020-02-21 08:00 15.34 77200 121000 (1997) 12000 (1958) 43200 17700 23500 26200 27500 38300 51900 56200 77500 97400
2020-02-21 07:00 15.26 76600 121000 (1997) 12000 (1958) 43200 17700 23500 26200 27500 38300 51900 56200 77500 97400
2020-02-21 06:00 15.33 77100 121000 (1997) 12000 (1958) 43200 17700 23500 26200 27500 38300 51900 56200 77500 97400
2020-02-21 05:00 15.30 76900 121000 (1997) 12000 (1958) 43200 17700 23500 26200 27500 38300 51900 56200 77500 97400
2020-02-21 04:00 15.27 76700 121000 (1997) 12000 (1958) 43200 17700 23500 26200 27500 38300 51900 56200 77500 97400
2020-02-21 03:00 15.24 76500 121000 (1997) 12000 (1958) 43200 17700 23500 26200 27500 38300 51900 56200 77500 97400
2020-02-21 02:00 15.24 76500 121000 (1997) 12000 (1958) 43200 17700 23500 26200 27500 38300 51900 56200 77500 97400
2020-02-21 01:00 15.20 76200 121000 (1997) 12000 (1958) 43200 17700 23500 26200 27500 38300 51900 56200 77500 97400
2020-02-21 00:00 15.22 76400 121000 (1997) 12000 (1958) 43200 17700 23500 26200 27500 38300 51900 56200 77500 97400
2020-02-20 23:00 15.19 76100 105000 (2011) 12300 (1958) 41700 18100 23900 26600 27900 37500 51000 56400 69600 84200
2020-02-20 22:00 15.20 76200 105000 (2011) 12300 (1958) 41700 18100 23900 26600 27900 37500 51000 56400 69600 84200
2020-02-20 21:00 15.17 76000 105000 (2011) 12300 (1958) 41700 18100 23900 26600 27900 37500 51000 56400 69600 84200
2020-02-20 20:00 15.14 75800 105000 (2011) 12300 (1958) 41700 18100 23900 26600 27900 37500 51000 56400 69600 84200
2020-02-20 19:00 15.08 75400 105000 (2011) 12300 (1958) 41700 18100 23900 26600 27900 37500 51000 56400 69600 84200
2020-02-20 18:00 15.07 75300 105000 (2011) 12300 (1958) 41700 18100 23900 26600 27900 37500 51000 56400 69600 84200
2020-02-20 17:00 15.04 75100 105000 (2011) 12300 (1958) 41700 18100 23900 26600 27900 37500 51000 56400 69600 84200
2020-02-20 16:00 14.97 74600 105000 (2011) 12300 (1958) 41700 18100 23900 26600 27900 37500 51000 56400 69600 84200
2020-02-20 15:00 14.95 74400 105000 (2011) 12300 (1958) 41700 18100 23900 26600 27900 37500 51000 56400 69600 84200
2020-02-20 14:00 14.89 74000 105000 (2011) 12300 (1958) 41700 18100 23900 26600 27900 37500 51000 56400 69600 84200
2020-02-20 13:00 14.94 74400 105000 (2011) 12300 (1958) 41700 18100 23900 26600 27900 37500 51000 56400 69600 84200
2020-02-20 12:00 14.82 73500 105000 (2011) 12300 (1958) 41700 18100 23900 26600 27900 37500 51000 56400 69600 84200
2020-02-20 11:00 14.83 73600 105000 (2011) 12300 (1958) 41700 18100 23900 26600 27900 37500 51000 56400 69600 84200
2020-02-20 10:00 14.83 73600 105000 (2011) 12300 (1958) 41700 18100 23900 26600 27900 37500 51000 56400 69600 84200
2020-02-20 09:00 14.78 73200 105000 (2011) 12300 (1958) 41700 18100 23900 26600 27900 37500 51000 56400 69600 84200
2020-02-20 08:00 14.68 72600 105000 (2011) 12300 (1958) 41700 18100 23900 26600 27900 37500 51000 56400 69600 84200
2020-02-20 07:00 14.80 73400 105000 (2011) 12300 (1958) 41700 18100 23900 26600 27900 37500 51000 56400 69600 84200
2020-02-20 06:00 14.74 73000 105000 (2011) 12300 (1958) 41700 18100 23900 26600 27900 37500 51000 56400 69600 84200
2020-02-20 05:00 14.71 72800 105000 (2011) 12300 (1958) 41700 18100 23900 26600 27900 37500 51000 56400 69600 84200
2020-02-20 04:00 14.71 72800 105000 (2011) 12300 (1958) 41700 18100 23900 26600 27900 37500 51000 56400 69600 84200
2020-02-20 03:00 14.70 72700 105000 (2011) 12300 (1958) 41700 18100 23900 26600 27900 37500 51000 56400 69600 84200
2020-02-20 02:00 14.68 72600 105000 (2011) 12300 (1958) 41700 18100 23900 26600 27900 37500 51000 56400 69600 84200
2020-02-20 01:00 14.61 72100 105000 (2011) 12300 (1958) 41700 18100 23900 26600 27900 37500 51000 56400 69600 84200
2020-02-20 00:00 14.59 71900 105000 (2011) 12300 (1958) 41700 18100 23900 26600 27900 37500 51000 56400 69600 84200
2020-02-19 23:00 14.64 72300 100000 (2011) 11500 (1958) 40400 18500 22900 25800 27000 36100 52000 55200 62500 75900
2020-02-19 22:00 14.62 72100 100000 (2011) 11500 (1958) 40400 18500 22900 25800 27000 36100 52000 55200 62500 75900
2020-02-19 21:00 14.56 71700 100000 (2011) 11500 (1958) 40400 18500 22900 25800 27000 36100 52000 55200 62500 75900
2020-02-19 20:00 14.64 72300 100000 (2011) 11500 (1958) 40400 18500 22900 25800 27000 36100 52000 55200 62500 75900
2020-02-19 19:00 14.56 71700 100000 (2011) 11500 (1958) 40400 18500 22900 25800 27000 36100 52000 55200 62500 75900
2020-02-19 18:00 14.54 71600 100000 (2011) 11500 (1958) 40400 18500 22900 25800 27000 36100 52000 55200 62500 75900
2020-02-19 17:00 14.58 71900 100000 (2011) 11500 (1958) 40400 18500 22900 25800 27000 36100 52000 55200 62500 75900
2020-02-19 16:00 14.55 71700 100000 (2011) 11500 (1958) 40400 18500 22900 25800 27000 36100 52000 55200 62500 75900
2020-02-19 15:00 14.54 71600 100000 (2011) 11500 (1958) 40400 18500 22900 25800 27000 36100 52000 55200 62500 75900
2020-02-19 14:00 14.53 71500 100000 (2011) 11500 (1958) 40400 18500 22900 25800 27000 36100 52000 55200 62500 75900
2020-02-19 13:00 14.50 71300 100000 (2011) 11500 (1958) 40400 18500 22900 25800 27000 36100 52000 55200 62500 75900
2020-02-19 12:00 14.51 71400 100000 (2011) 11500 (1958) 40400 18500 22900 25800 27000 36100 52000 55200 62500 75900
2020-02-19 11:00 14.42 70800 100000 (2011) 11500 (1958) 40400 18500 22900 25800 27000 36100 52000 55200 62500 75900
2020-02-19 10:00 14.47 71100 100000 (2011) 11500 (1958) 40400 18500 22900 25800 27000 36100 52000 55200 62500 75900
2020-02-19 09:00 14.40 70600 100000 (2011) 11500 (1958) 40400 18500 22900 25800 27000 36100 52000 55200 62500 75900
2020-02-19 08:00 14.46 71000 100000 (2011) 11500 (1958) 40400 18500 22900 25800 27000 36100 52000 55200 62500 75900
2020-02-19 07:00 14.44 70900 100000 (2011) 11500 (1958) 40400 18500 22900 25800 27000 36100 52000 55200 62500 75900
2020-02-19 06:00 14.48 71200 100000 (2011) 11500 (1958) 40400 18500 22900 25800 27000 36100 52000 55200 62500 75900
2020-02-19 05:00 14.46 71000 100000 (2011) 11500 (1958) 40400 18500 22900 25800 27000 36100 52000 55200 62500 75900
2020-02-19 04:00 14.44 70900 100000 (2011) 11500 (1958) 40400 18500 22900 25800 27000 36100 52000 55200 62500 75900
2020-02-19 03:00 14.38 70500 100000 (2011) 11500 (1958) 40400 18500 22900 25800 27000 36100 52000 55200 62500 75900
2020-02-19 02:00 14.34 70200 100000 (2011) 11500 (1958) 40400 18500 22900 25800 27000 36100 52000 55200 62500 75900
2020-02-19 01:00 14.31 70000 100000 (2011) 11500 (1958) 40400 18500 22900 25800 27000 36100 52000 55200 62500 75900
2020-02-19 00:00 14.27 69800 100000 (2011) 11500 (1958) 40400 18500 22900 25800 27000 36100 52000 55200 62500 75900
2020-02-18 23:00 14.20 69300 87500 (1984) 10200 (1958) 39200 18900 21800 24900 26700 34800 49800 53000 63800 75800
2020-02-18 22:00 14.17 69100 87500 (1984) 10200 (1958) 39200 18900 21800 24900 26700 34800 49800 53000 63800 75800
2020-02-18 21:00 14.13 68800 87500 (1984) 10200 (1958) 39200 18900 21800 24900 26700 34800 49800 53000 63800 75800
2020-02-18 20:00 14.10 68600 87500 (1984) 10200 (1958) 39200 18900 21800 24900 26700 34800 49800 53000 63800 75800
2020-02-18 19:00 14.06 68300 87500 (1984) 10200 (1958) 39200 18900 21800 24900 26700 34800 49800 53000 63800 75800
2020-02-18 18:00 13.98 67800 87500 (1984) 10200 (1958) 39200 18900 21800 24900 26700 34800 49800 53000 63800 75800
2020-02-18 17:00 13.99 67900 87500 (1984) 10200 (1958) 39200 18900 21800 24900 26700 34800 49800 53000 63800 75800
2020-02-18 16:00 13.98 67800 87500 (1984) 10200 (1958) 39200 18900 21800 24900 26700 34800 49800 53000 63800 75800
2020-02-18 15:00 13.90 67300 87500 (1984) 10200 (1958) 39200 18900 21800 24900 26700 34800 49800 53000 63800 75800
2020-02-18 14:00 13.90 67300 87500 (1984) 10200 (1958) 39200 18900 21800 24900 26700 34800 49800 53000 63800 75800
2020-02-18 13:00 13.87 67100 87500 (1984) 10200 (1958) 39200 18900 21800 24900 26700 34800 49800 53000 63800 75800
2020-02-18 12:00 13.90 67300 87500 (1984) 10200 (1958) 39200 18900 21800 24900 26700 34800 49800 53000 63800 75800
2020-02-18 11:00 13.90 67300 87500 (1984) 10200 (1958) 39200 18900 21800 24900 26700 34800 49800 53000 63800 75800
2020-02-18 10:00 13.86 67000 87500 (1984) 10200 (1958) 39200 18900 21800 24900 26700 34800 49800 53000 63800 75800
2020-02-18 09:00 13.79 66600 87500 (1984) 10200 (1958) 39200 18900 21800 24900 26700 34800 49800 53000 63800 75800
2020-02-18 08:00 13.90 67300 87500 (1984) 10200 (1958) 39200 18900 21800 24900 26700 34800 49800 53000 63800 75800
2020-02-18 07:00 13.89 67200 87500 (1984) 10200 (1958) 39200 18900 21800 24900 26700 34800 49800 53000 63800 75800
2020-02-18 06:00 13.86 67000 87500 (1984) 10200 (1958) 39200 18900 21800 24900 26700 34800 49800 53000 63800 75800
2020-02-18 05:00 13.85 67000 87500 (1984) 10200 (1958) 39200 18900 21800 24900 26700 34800 49800 53000 63800 75800
2020-02-18 04:00 13.83 66800 87500 (1984) 10200 (1958) 39200 18900 21800 24900 26700 34800 49800 53000 63800 75800
2020-02-18 03:00 13.86 67000 87500 (1984) 10200 (1958) 39200 18900 21800 24900 26700 34800 49800 53000 63800 75800
2020-02-18 02:00 13.86 67000 87500 (1984) 10200 (1958) 39200 18900 21800 24900 26700 34800 49800 53000 63800 75800
2020-02-18 01:00 13.83 66800 87500 (1984) 10200 (1958) 39200 18900 21800 24900 26700 34800 49800 53000 63800 75800
2020-02-18 00:00 13.76 66400 87500 (1984) 10200 (1958) 39200 18900 21800 24900 26700 34800 49800 53000 63800 75800

A total of 183 rows are displayed for years 1958 through 2019.